• Join FlightAware (Why Join?)
  • Login
  • US Flag 
05:59AM EST


 

Airport Tracker/Info


-or-


 

Live Flight TrackerFlight Track Log ✈ LCO1103 ✈ 08-Mar-2012 ✈ KMIA - SBKP / VCP

Flight Track Log - Related Links

Times and Time Zones

All times are in EST time to prevent confusion due to time zone crossing. See the LCO1103 flight status page for this flight to view local times or setup timezone preferences in your user account.

Time Position Orientation Groundspeed Altitude Reporting Facility
EST Latitude Longitude Course Direction KTS MPH feet Rate Location/Type
10:11AM 25.7836 -80.2764 113° Southeast 184 212 800  Level Miami Center
10:13AM 25.7461 -80.1783 102° East 227 261 4,000 1,920 Climbing Miami Center
10:14AM 25.7292 -80.0903 103° East 265 305 6,400 2,220 Climbing Miami Center
10:15AM 25.7122 -80.0069 104° East 265 305 8,900 2,160 Climbing Miami Center
10:16AM 25.6931 -79.9211 101° East 272 313 10,800 1,620 Climbing Miami Center
10:17AM 25.6744 -79.8147 105° East 307 353 12,200 1,860 Climbing Miami Center
10:18AM 25.6475 -79.7011 102° East 348 400 14,600 2,100 Climbing Miami Center
10:19AM 25.6247 -79.5806 103° East 380 437 16,500 1,620 Climbing Miami Center
10:20AM 25.5978 -79.4533 105° East 402 463 17,900 1,560 Climbing Miami Center
10:21AM 25.5664 -79.3214 120° Southeast 419 482 19,700 1,680 Climbing Miami Center
10:22AM 25.5036 -79.2028 132° Southeast 440 506 21,400 1,680 Climbing Miami Center
10:23AM 25.4156 -79.0928 132° Southeast 457 526 23,100 1,500 Climbing Miami Center
10:24AM 25.3231 -78.9808 130° Southeast 470 541 24,500 1,500 Climbing Miami Center
10:25AM 25.2267 -78.8550 131° Southeast 488 562 26,200 1,800 Climbing Miami Center
10:26AM 25.1364 -78.7411 132° Southeast 488 562 28,100 1,860 Climbing Miami Center
10:27AM 25.0417 -78.6250 131° Southeast 488 562 29,900 1,440 Climbing Miami Center
10:28AM 24.9550 -78.5136 132° Southeast 488 562 31,000 540 Climbing Miami Center
10:29AM 24.8747 -78.4164 131° Southeast 488 562 31,000  Level Miami Center
10:30AM 24.7881 -78.3056 132° Southeast 488 562 31,000  Level Miami Center
10:31AM 24.6950 -78.1922 131° Southeast 488 562 31,000  Level Miami Center
10:32AM 24.6061 -78.0794 132° Southeast 488 562 31,000  Level Miami Center
10:33AM 24.5169 -77.9711 131° Southeast 488 562 31,000  Level Miami Center
10:34AM 24.4258 -77.8561 131° Southeast 488 562 31,000  Level Miami Center
10:35AM 24.3367 -77.7439 132° Southeast 488 562 31,000  Level Miami Center
10:36AM 24.2433 -77.6314 131° Southeast 488 562 31,000  Level Miami Center
10:37AM 24.1581 -77.5239 131° Southeast 488 562 31,000  Level Miami Center
10:38AM 24.0689 -77.4119 131° Southeast 488 562 31,000  Level Miami Center
10:39AM 23.9792 -77.3000 133° Southeast 488 562 31,000  Level Miami Center
10:40AM 23.8875 -77.1908 133° Southeast 488 562 31,000  Level Miami Center
10:41AM 23.7894 -77.0769 131° Southeast 488 562 31,000  Level Miami Center
10:42AM 23.6997 -76.9656 131° Southeast 488 562 31,000  Level Miami Center
10:43AM 23.6119 -76.8567 132° Southeast 488 562 31,000  Level Miami Center
10:44AM 23.5222 -76.7478 131° Southeast 488 562 31,000  Level Miami Center
10:45AM 23.4342 -76.6392 133° Southeast 488 562 31,000  Level Miami Center
10:46AM 23.3400 -76.5308 131° Southeast 488 562 31,000  Level Miami Center
10:47AM 23.2519 -76.4225 133° Southeast 488 562 31,000  Level Miami Center
10:48AM 23.1597 -76.3144 131° Southeast 488 562 31,000  Level Miami Center
10:49AM 23.0714 -76.2042 132° Southeast 488 562 31,000  Level Miami Center
10:50AM 22.9789 -76.0939 132° Southeast 488 562 31,000  Level Miami Center
10:51AM 22.8906 -75.9861 132° Southeast 488 562 31,000  Level Miami Center
10:52AM 22.8003 -75.8786 133° Southeast 488 562 31,000  Level Miami Center
10:53AM 22.7094 -75.7714 132° Southeast 488 562 31,000  Level Miami Center
10:54AM 22.6211 -75.6639 132° Southeast 488 562 31,000  Level Miami Center
10:55AM 22.5325 -75.5592 133° Southeast 488 562 31,000  Level Miami Center
10:56AM 22.4417 -75.4544 132° Southeast 483 556 31,000  Level Miami Center
10:57AM 22.3528 -75.3475 133° Southeast 483 556 31,000  Level Miami Center
10:58AM 22.2619 -75.2408 134° Southeast 478 550 31,000  Level Miami Center
10:59AM 22.1711 -75.1389 133° Southeast 478 550 31,000  Level Miami Center
11:00AM 22.0800 -75.0347 139° Southeast 478 550 31,000  Level Miami Center
11:01AM 21.9828 -74.9422 139° Southeast 472 543 31,000  Level Miami Center
11:02AM 21.8833 -74.8494 138° Southeast 472 543 31,000  Level Miami Center
11:03AM 21.7861 -74.7550 137° Southeast 472 543 31,000  Level Miami Center
11:04AM 21.6950 -74.6625 138° Southeast 467 537 31,000 -60 Level Miami Center
11:05AM 21.5975 -74.5681 139° Southeast 462 532 30,900 -60 Descending Miami Center
11:06AM 21.4978 -74.4739 139° Southeast 467 537 30,900  Level Miami Center
11:07AM 21.4003 -74.3819 138° Southeast 467 537 31,000  Climbing Miami Center
11:08AM 21.3028 -74.2881 139° Southeast 467 537 31,000  Level Miami Center
11:09AM 21.2031 -74.1964 138° Southeast 467 537 31,000  Level Miami Center
11:10AM 21.1075 -74.1047 140° Southeast 462 532 31,000  Level Miami Center
11:11AM 21.0078 -74.0136 139° Southeast 467 537 31,000  Level Miami Center
11:12AM 20.9081 -73.9200 139° Southeast 467 537 31,000  Level Miami Center
11:13AM 20.8081 -73.8269 138° Southeast 467 537 31,000  Level Miami Center
11:14AM 20.7125 -73.7358 140° Southeast 467 537 31,000  Level Miami Center
11:15AM 20.6125 -73.6450 139° Southeast 467 537 31,000  Level Miami Center
11:16AM 20.5125 -73.5522 140° Southeast 467 537 31,000  Level Miami Center
11:17AM 20.4125 -73.4617 138° Southeast 467 537 31,000  Level Miami Center
11:18AM 20.3144 -73.3689 139° Southeast 467 537 31,000 -60 Level Miami Center
11:19AM 20.2164 -73.2786 142° Southeast 472 543 30,900 -120 Descending Miami Center
11:27AM 19.4834 -72.6794 143° Southeast  Level FlightAware Approximate
11:28AM 19.3838 -72.5999 143° Southeast  Level FlightAware Approximate
11:29AM 19.2841 -72.5204 143° Southeast  Level FlightAware Approximate
11:30AM 19.1844 -72.4411 143° Southeast  Level FlightAware Approximate
11:31AM 19.0847 -72.3618 143° Southeast  Level FlightAware Approximate
11:32AM 18.9850 -72.2827 143° Southeast  Level FlightAware Approximate
11:33AM 18.8852 -72.2037 143° Southeast  Level FlightAware Approximate
11:34AM 18.7853 -72.1247 143° Southeast  Level FlightAware Approximate
11:35AM 18.6855 -72.0458 143° Southeast  Level FlightAware Approximate
11:36AM 18.5856 -71.9670 127° Southeast  Level FlightAware Approximate
11:37AM 18.5107 -71.8625 144° Southeast  Level FlightAware Approximate
11:38AM 18.4099 -71.7851 148° Southeast  Level FlightAware Approximate
11:39AM 18.3042 -71.7157 144° Southeast  Level FlightAware Approximate
11:40AM 18.2034 -71.6384 144° Southeast  Level FlightAware Approximate
11:41AM 18.1028 -71.5609 144° Southeast  Level FlightAware Approximate
11:42AM 18.0022 -71.4834 144° Southeast  Level FlightAware Approximate
11:43AM 17.9015 -71.4061 144° Southeast  Level FlightAware Approximate
11:44AM 17.8008 -71.3288 144° Southeast  Level FlightAware Approximate
11:45AM 17.7001 -71.2516 144° Southeast  Level FlightAware Approximate
11:46AM 17.5993 -71.1745 144° Southeast  Level FlightAware Approximate
11:47AM 17.4985 -71.0975 144° Southeast  Level FlightAware Approximate
11:48AM 17.3977 -71.0206 144° Southeast  Level FlightAware Approximate
11:49AM 17.2968 -70.9437 144° Southeast  Level FlightAware Approximate
11:50AM 17.1960 -70.8670 144° Southeast  Level FlightAware Approximate
11:51AM 17.0951 -70.7903 144° Southeast  Level FlightAware Approximate
11:52AM 16.9941 -70.7137 144° Southeast  Level FlightAware Approximate
11:53AM 16.8932 -70.6372 144° Southeast  Level FlightAware Approximate
11:54AM 16.7922 -70.5608 144° Southeast  Level FlightAware Approximate
11:55AM 16.6912 -70.4845 144° Southeast  Level FlightAware Approximate
11:56AM 16.5901 -70.4082 144° Southeast  Level FlightAware Approximate
11:57AM 16.4890 -70.3320 144° Southeast  Level FlightAware Approximate
11:58AM 16.3879 -70.2559 144° Southeast  Level FlightAware Approximate
11:59AM 16.2868 -70.1799 144° Southeast  Level FlightAware Approximate
12:00PM 16.1856 -70.1040 144° Southeast  Level FlightAware Approximate
12:01PM 16.0844 -70.0281 145° Southeast  Level FlightAware Approximate
12:02PM 15.9824 -69.9535 144° Southeast  Level FlightAware Approximate
12:03PM 15.8812 -69.8778 144° Southeast  Level FlightAware Approximate
12:04PM 15.7799 -69.8022 144° Southeast  Level FlightAware Approximate
12:05PM 15.6786 -69.7267 144° Southeast  Level FlightAware Approximate
12:06PM 15.5772 -69.6512 144° Southeast  Level FlightAware Approximate
12:07PM 15.4759 -69.5759 144° Southeast  Level FlightAware Approximate
12:08PM 15.3745 -69.5005 144° Southeast  Level FlightAware Approximate
12:09PM 15.2731 -69.4253 144° Southeast  Level FlightAware Approximate
12:10PM 15.1716 -69.3502 144° Southeast  Level FlightAware Approximate
12:11PM 15.0702 -69.2751 144° Southeast  Level FlightAware Approximate
12:12PM 14.9687 -69.2001 144° Southeast  Level FlightAware Approximate
12:13PM 14.8672 -69.1251 145° Southeast  Level FlightAware Approximate
12:14PM 14.7656 -69.0502 145° Southeast  Level FlightAware Approximate
12:15PM 14.6641 -68.9754 145° Southeast  Level FlightAware Approximate
12:16PM 14.5625 -68.9007 145° Southeast  Level FlightAware Approximate
12:17PM 14.4608 -68.8260 145° Southeast  Level FlightAware Approximate
12:18PM 14.3592 -68.7514 145° Southeast  Level FlightAware Approximate
12:19PM 14.2576 -68.6769 145° Southeast  Level FlightAware Approximate
12:20PM 14.1559 -68.6024 145° Southeast  Level FlightAware Approximate
12:21PM 14.0542 -68.5280 145° Southeast  Level FlightAware Approximate
12:22PM 13.9524 -68.4537 145° Southeast  Level FlightAware Approximate
12:23PM 13.8507 -68.3794 145° Southeast  Level FlightAware Approximate
12:24PM 13.7489 -68.3052 145° Southeast  Level FlightAware Approximate
12:25PM 13.6471 -68.2311 145° Southeast  Level FlightAware Approximate
12:26PM 13.5453 -68.1570 145° Southeast  Level FlightAware Approximate
12:27PM 13.4435 -68.0830 145° Southeast  Level FlightAware Approximate
12:28PM 13.3416 -68.0090 145° Southeast  Level FlightAware Approximate
12:29PM 13.2397 -67.9352 145° Southeast  Level FlightAware Approximate
12:30PM 13.1378 -67.8613 145° Southeast  Level FlightAware Approximate
12:31PM 13.0359 -67.7876 145° Southeast  Level FlightAware Approximate
12:32PM 12.9340 -67.7139 144° Southeast  Level FlightAware Approximate
12:33PM 12.8335 -67.6381 145° Southeast  Level FlightAware Approximate
12:34PM 12.7316 -67.5645 145° Southeast  Level FlightAware Approximate
12:35PM 12.6296 -67.4910 145° Southeast  Level FlightAware Approximate
12:36PM 12.5275 -67.4175 145° Southeast  Level FlightAware Approximate
12:37PM 12.4255 -67.3440 145° Southeast  Level FlightAware Approximate
12:38PM 12.3235 -67.2707 145° Southeast  Level FlightAware Approximate
12:39PM 12.2214 -67.1973 145° Southeast  Level FlightAware Approximate
12:40PM 12.1193 -67.1241 145° Southeast  Level FlightAware Approximate
12:41PM 12.0172 -67.0509 145° Southeast  Level FlightAware Approximate
12:42PM 11.9151 -66.9777 145° Southeast  Level FlightAware Approximate
12:43PM 11.8130 -66.9046 145° Southeast  Level FlightAware Approximate
12:44PM 11.7108 -66.8316 145° Southeast  Level FlightAware Approximate
12:45PM 11.6086 -66.7586 145° Southeast  Level FlightAware Approximate
12:46PM 11.5064 -66.6857 145° Southeast  Level FlightAware Approximate
12:47PM 11.4042 -66.6128 145° Southeast  Level FlightAware Approximate
12:48PM 11.3020 -66.5400 145° Southeast  Level FlightAware Approximate
12:49PM 11.1997 -66.4672 145° Southeast  Level FlightAware Approximate
12:50PM 11.0975 -66.3945 145° Southeast  Level FlightAware Approximate
12:51PM 10.9952 -66.3218 145° Southeast  Level FlightAware Approximate
12:52PM 10.8929 -66.2492 145° Southeast  Level FlightAware Approximate
12:53PM 10.7906 -66.1766 145° Southeast  Level FlightAware Approximate
12:54PM 10.6882 -66.1041 145° Southeast  Level FlightAware Approximate
12:55PM 10.5859 -66.0316 145° Southeast  Level FlightAware Approximate
12:56PM 10.4835 -65.9592 145° Southeast  Level FlightAware Approximate
12:57PM 10.3811 -65.8868 145° Southeast  Level FlightAware Approximate
12:58PM 10.2787 -65.8145 145° Southeast  Level FlightAware Approximate
12:59PM 10.1763 -65.7422 145° Southeast  Level FlightAware Approximate
01:00PM 10.0738 -65.6700 145° Southeast  Level FlightAware Approximate
01:01PM 9.9714 -65.5978 145° Southeast  Level FlightAware Approximate
01:02PM 9.8689 -65.5257 147° Southeast  Level FlightAware Approximate
01:03PM 9.7647 -65.4567 145° Southeast  Level FlightAware Approximate
01:04PM 9.6622 -65.3846 145° Southeast  Level FlightAware Approximate
01:05PM 9.5597 -65.3125 145° Southeast  Level FlightAware Approximate
01:06PM 9.4572 -65.2405 145° Southeast  Level FlightAware Approximate
01:07PM 9.3547 -65.1685 145° Southeast  Level FlightAware Approximate
01:08PM 9.2522 -65.0966 145° Southeast  Level FlightAware Approximate
01:09PM 9.1497 -65.0247 145° Southeast  Level FlightAware Approximate
01:10PM 9.0471 -64.9529 145° Southeast  Level FlightAware Approximate
01:11PM 8.9445 -64.8811 145° Southeast  Level FlightAware Approximate
01:12PM 8.8420 -64.8093 145° Southeast  Level FlightAware Approximate
01:13PM 8.7394 -64.7376 145° Southeast  Level FlightAware Approximate
01:14PM 8.6368 -64.6659 145° Southeast  Level FlightAware Approximate
01:15PM 8.5341 -64.5942 145° Southeast  Level FlightAware Approximate
01:16PM 8.4315 -64.5226 145° Southeast  Level FlightAware Approximate
01:17PM 8.3289 -64.4510 145° Southeast  Level FlightAware Approximate
01:18PM 8.2262 -64.3795 145° Southeast  Level FlightAware Approximate
01:19PM 8.1235 -64.3080 145° Southeast  Level FlightAware Approximate
01:20PM 8.0208 -64.2366 145° Southeast  Level FlightAware Approximate
01:21PM 7.9181 -64.1651 145° Southeast  Level FlightAware Approximate
01:22PM 7.8154 -64.0938 146° Southeast  Level FlightAware Approximate
01:23PM 7.7119 -64.0236 156° South  Level FlightAware Approximate
01:24PM 7.5983 -63.9717 156° South  Level FlightAware Approximate
01:25PM 7.4847 -63.9199 156° South  Level FlightAware Approximate
01:26PM 7.3710 -63.8682 156° South  Level FlightAware Approximate
01:27PM 7.2574 -63.8164 156° South  Level FlightAware Approximate
01:28PM 7.1437 -63.7647 156° South  Level FlightAware Approximate
01:29PM 7.0301 -63.7130 156° South  Level FlightAware Approximate
01:30PM 6.9164 -63.6614 156° South  Level FlightAware Approximate
01:31PM 6.8027 -63.6097 156° South  Level FlightAware Approximate
01:32PM 6.6890 -63.5581 156° South  Level FlightAware Approximate
01:33PM 6.5754 -63.5065 156° South  Level FlightAware Approximate
01:34PM 6.4617 -63.4550 156° South  Level FlightAware Approximate
01:35PM 6.3480 -63.4035 156° South  Level FlightAware Approximate
01:36PM 6.2343 -63.3519 156° South  Level FlightAware Approximate
01:37PM 6.1206 -63.3004 156° South  Level FlightAware Approximate
01:38PM 6.0069 -63.2490 156° South  Level FlightAware Approximate
01:39PM 5.8932 -63.1975 156° South  Level FlightAware Approximate
01:40PM 5.7794 -63.1461 156° South  Level FlightAware Approximate
01:41PM 5.6657 -63.0947 156° South  Level FlightAware Approximate
01:42PM 5.5520 -63.0433 156° South  Level FlightAware Approximate
01:43PM 5.4383 -62.9919 156° South  Level FlightAware Approximate
01:44PM 5.3245 -62.9406 156° South  Level FlightAware Approximate
01:45PM 5.2108 -62.8892 156° South  Level FlightAware Approximate
01:46PM 5.0970 -62.8379 156° South  Level FlightAware Approximate
01:47PM 4.9833 -62.7866 156° South  Level FlightAware Approximate
01:48PM 4.8695 -62.7354 156° South  Level FlightAware Approximate
01:49PM 4.7558 -62.6841 156° South  Level FlightAware Approximate
01:50PM 4.6420 -62.6329 156° South  Level FlightAware Approximate
01:51PM 4.5283 -62.5816 156° South  Level FlightAware Approximate
01:52PM 4.4145 -62.5304 156° South  Level FlightAware Approximate
01:53PM 4.3007 -62.4792 156° South  Level FlightAware Approximate
01:54PM 4.1869 -62.4281 156° South  Level FlightAware Approximate
01:55PM 4.0732 -62.3769 156° South  Level FlightAware Approximate
01:56PM 3.9594 -62.3257 156° South  Level FlightAware Approximate
01:57PM 3.8456 -62.2746 156° South  Level FlightAware Approximate
01:58PM 3.7318 -62.2235 156° South  Level FlightAware Approximate
01:59PM 3.6180 -62.1724 156° South  Level FlightAware Approximate
02:00PM 3.5042 -62.1213 156° South  Level FlightAware Approximate
02:01PM 3.3904 -62.0702 156° South  Level FlightAware Approximate
02:02PM 3.2766 -62.0191 156° South  Level FlightAware Approximate
02:03PM 3.1628 -61.9681 156° South  Level FlightAware Approximate
02:04PM 3.0490 -61.9170 156° South  Level FlightAware Approximate
02:05PM 2.9352 -61.8660 156° South  Level FlightAware Approximate
02:06PM 2.8214 -61.8149 156° South  Level FlightAware Approximate
02:07PM 2.7076 -61.7639 156° South  Level FlightAware Approximate
02:08PM 2.5938 -61.7129 156° South  Level FlightAware Approximate
02:09PM 2.4799 -61.6619 156° South  Level FlightAware Approximate
02:10PM 2.3661 -61.6109 156° South  Level FlightAware Approximate
02:11PM 2.2523 -61.5600 152° Southeast  Level FlightAware Approximate
02:12PM 2.1423 -61.5012 152° Southeast  Level FlightAware Approximate
02:13PM 2.0322 -61.4425 152° Southeast  Level FlightAware Approximate
02:14PM 1.9222 -61.3838 152° Southeast  Level FlightAware Approximate
02:15PM 1.8122 -61.3251 152° Southeast  Level FlightAware Approximate
02:16PM 1.7021 -61.2664 152° Southeast  Level FlightAware Approximate
02:17PM 1.5921 -61.2077 152° Southeast  Level FlightAware Approximate
02:18PM 1.4821 -61.1490 152° Southeast  Level FlightAware Approximate
02:19PM 1.3720 -61.0904 152° Southeast  Level FlightAware Approximate
02:20PM 1.2620 -61.0317 152° Southeast  Level FlightAware Approximate
02:21PM 1.1520 -60.9730 152° Southeast  Level FlightAware Approximate
02:22PM 1.0419 -60.9144 152° Southeast  Level FlightAware Approximate
02:23PM 0.9319 -60.8557 152° Southeast  Level FlightAware Approximate
02:24PM 0.8218 -60.7971 152° Southeast  Level FlightAware Approximate
02:25PM 0.7117 -60.7384 152° Southeast  Level FlightAware Approximate
02:26PM 0.6017 -60.6797 152° Southeast  Level FlightAware Approximate
02:27PM 0.4916 -60.6211 152° Southeast  Level FlightAware Approximate
02:28PM 0.3816 -60.5625 152° Southeast  Level FlightAware Approximate
02:29PM 0.2715 -60.5038 152° Southeast  Level FlightAware Approximate
02:30PM 0.1615 -60.4452 152° Southeast  Level FlightAware Approximate
02:31PM 0.0514 -60.3865 152° Southeast  Level FlightAware Approximate
02:32PM -0.0586 -60.3279 152° Southeast  Level FlightAware Approximate
02:33PM -0.1687 -60.2693 152° Southeast  Level FlightAware Approximate
02:34PM -0.2787 -60.2106 152° Southeast  Level FlightAware Approximate
02:35PM -0.3887 -60.1520 152° Southeast  Level FlightAware Approximate
02:36PM -0.4988 -60.0933 152° Southeast  Level FlightAware Approximate
02:37PM -0.6089 -60.0347 152° Southeast  Level FlightAware Approximate
02:38PM -0.7189 -59.9761 152° Southeast  Level FlightAware Approximate
02:39PM -0.8289 -59.9174 152° Southeast  Level FlightAware Approximate
02:40PM -0.9390 -59.8587 152° Southeast  Level FlightAware Approximate
02:41PM -1.0490 -59.8001 152° Southeast  Level FlightAware Approximate
02:42PM -1.1591 -59.7414 152° Southeast  Level FlightAware Approximate
02:43PM -1.2691 -59.6828 152° Southeast  Level FlightAware Approximate
02:44PM -1.3792 -59.6241 152° Southeast  Level FlightAware Approximate
02:45PM -1.4892 -59.5654 152° Southeast  Level FlightAware Approximate
02:46PM -1.5993 -59.5067 152° Southeast  Level FlightAware Approximate
02:47PM -1.7093 -59.4480 152° Southeast  Level FlightAware Approximate
02:48PM -1.8193 -59.3894 152° Southeast  Level FlightAware Approximate
02:49PM -1.9294 -59.3307 152° Southeast  Level FlightAware Approximate
02:50PM -2.0394 -59.2719 152° Southeast  Level FlightAware Approximate
02:51PM -2.1494 -59.2132 152° Southeast  Level FlightAware Approximate
02:52PM -2.2595 -59.1545 152° Southeast  Level FlightAware Approximate
02:53PM -2.3695 -59.0958 152° Southeast  Level FlightAware Approximate
02:54PM -2.4795 -59.0370 152° Southeast  Level FlightAware Approximate
02:55PM -2.5895 -58.9783 152° Southeast  Level FlightAware Approximate
02:56PM -2.6995 -58.9195 152° Southeast  Level FlightAware Approximate
02:57PM -2.8096 -58.8607 152° Southeast  Level FlightAware Approximate
02:58PM -2.9196 -58.8019 152° Southeast  Level FlightAware Approximate
02:59PM -3.0296 -58.7431 152° Southeast  Level FlightAware Approximate
03:00PM -3.1396 -58.6843 152° Southeast  Level FlightAware Approximate
03:01PM -3.2496 -58.6255 152° Southeast  Level FlightAware Approximate
03:02PM -3.3596 -58.5667 152° Southeast  Level FlightAware Approximate
03:03PM -3.4696 -58.5078 152° Southeast  Level FlightAware Approximate
03:04PM -3.5796 -58.4490 152° Southeast  Level FlightAware Approximate
03:05PM -3.6896 -58.3901 152° Southeast  Level FlightAware Approximate
03:06PM -3.7996 -58.3312 152° Southeast  Level FlightAware Approximate
03:07PM -3.9095 -58.2723 152° Southeast  Level FlightAware Approximate
03:08PM -4.0195 -58.2134 152° Southeast  Level FlightAware Approximate
03:09PM -4.1295 -58.1544 152° Southeast  Level FlightAware Approximate
03:10PM -4.2394 -58.0955 152° Southeast  Level FlightAware Approximate
03:11PM -4.3494 -58.0365 152° Southeast  Level FlightAware Approximate
03:12PM -4.4594 -57.9775 152° Southeast  Level FlightAware Approximate
03:13PM -4.5693 -57.9185 152° Southeast  Level FlightAware Approximate
03:14PM -4.6793 -57.8595 152° Southeast  Level FlightAware Approximate
03:15PM -4.7892 -57.8005 152° Southeast  Level FlightAware Approximate
03:16PM -4.8991 -57.7414 152° Southeast  Level FlightAware Approximate
03:17PM -5.0091 -57.6823 152° Southeast  Level FlightAware Approximate
03:18PM -5.1190 -57.6232 152° Southeast  Level FlightAware Approximate
03:19PM -5.2289 -57.5641 152° Southeast  Level FlightAware Approximate
03:20PM -5.3389 -57.5050 152° Southeast  Level FlightAware Approximate
03:21PM -5.4488 -57.4458 152° Southeast  Level FlightAware Approximate
03:22PM -5.5587 -57.3866 152° Southeast  Level FlightAware Approximate
03:23PM -5.6686 -57.3274 152° Southeast  Level FlightAware Approximate
03:24PM -5.7785 -57.2682 152° Southeast  Level FlightAware Approximate
03:25PM -5.8884 -57.2090 152° Southeast  Level FlightAware Approximate
03:26PM -5.9982 -57.1497 152° Southeast  Level FlightAware Approximate
03:27PM -6.1081 -57.0904 152° Southeast  Level FlightAware Approximate
03:28PM -6.2180 -57.0311 152° Southeast  Level FlightAware Approximate
03:29PM -6.3278 -56.9717 152° Southeast  Level FlightAware Approximate
03:30PM -6.4377 -56.9123 152° Southeast  Level FlightAware Approximate
03:31PM -6.5476 -56.8529 152° Southeast  Level FlightAware Approximate
03:32PM -6.6574 -56.7935 152° Southeast  Level FlightAware Approximate
03:33PM -6.7672 -56.7341 152° Southeast  Level FlightAware Approximate
03:34PM -6.8770 -56.6746 152° Southeast  Level FlightAware Approximate
03:35PM -6.9869 -56.6151 152° Southeast  Level FlightAware Approximate
03:36PM -7.0967 -56.5555 152° Southeast  Level FlightAware Approximate
03:37PM -7.2065 -56.4960 152° Southeast  Level FlightAware Approximate
03:38PM -7.3163 -56.4364 152° Southeast  Level FlightAware Approximate
03:39PM -7.4261 -56.3768 152° Southeast  Level FlightAware Approximate
03:40PM -7.5359 -56.3171 152° Southeast  Level FlightAware Approximate
03:41PM -7.6456 -56.2574 152° Southeast  Level FlightAware Approximate
03:42PM -7.7554 -56.1977 152° Southeast  Level FlightAware Approximate
03:43PM -7.8651 -56.1380 152° Southeast  Level FlightAware Approximate
03:44PM -7.9749 -56.0782 152° Southeast  Level FlightAware Approximate
03:45PM -8.0846 -56.0184 152° Southeast  Level FlightAware Approximate
03:46PM -8.1944 -55.9586 152° Southeast  Level FlightAware Approximate
03:47PM -8.3041 -55.8987 152° Southeast  Level FlightAware Approximate
03:48PM -8.4138 -55.8388 152° Southeast  Level FlightAware Approximate
03:49PM -8.5235 -55.7789 152° Southeast  Level FlightAware Approximate
03:50PM -8.6332 -55.7189 152° Southeast  Level FlightAware Approximate
03:51PM -8.7429 -55.6589 152° Southeast  Level FlightAware Approximate
03:52PM -8.8525 -55.5988 152° Southeast  Level FlightAware Approximate
03:53PM -8.9622 -55.5387 151° Southeast  Level FlightAware Approximate
03:54PM -9.0714 -55.4778 151° Southeast  Level FlightAware Approximate
03:55PM -9.1806 -55.4167 151° Southeast  Level FlightAware Approximate
03:56PM -9.2898 -55.3557 151° Southeast  Level FlightAware Approximate
03:57PM -9.3989 -55.2946 151° Southeast  Level FlightAware Approximate
03:58PM -9.5081 -55.2334 151° Southeast  Level FlightAware Approximate
03:59PM -9.6172 -55.1723 151° Southeast  Level FlightAware Approximate
04:00PM -9.7263 -55.1110 151° Southeast  Level FlightAware Approximate
04:01PM -9.8354 -55.0498 151° Southeast  Level FlightAware Approximate
04:02PM -9.9445 -54.9885 151° Southeast  Level FlightAware Approximate
04:03PM -10.0536 -54.9272 151° Southeast  Level FlightAware Approximate
04:04PM -10.1627 -54.8658 151° Southeast  Level FlightAware Approximate
04:05PM -10.2718 -54.8044 151° Southeast  Level FlightAware Approximate
04:06PM -10.3808 -54.7429 151° Southeast  Level FlightAware Approximate
04:07PM -10.4899 -54.6814 151° Southeast  Level FlightAware Approximate
04:08PM -10.5989 -54.6198 151° Southeast  Level FlightAware Approximate
04:09PM -10.7079 -54.5582 151° Southeast  Level FlightAware Approximate
04:10PM -10.8169 -54.4966 151° Southeast  Level FlightAware Approximate
04:11PM -10.9259 -54.4349 151° Southeast  Level FlightAware Approximate
04:12PM -11.0349 -54.3732 151° Southeast  Level FlightAware Approximate
04:13PM -11.1439 -54.3114 151° Southeast  Level FlightAware Approximate
04:14PM -11.2528 -54.2496 151° Southeast  Level FlightAware Approximate
04:15PM -11.3618 -54.1877 151° Southeast  Level FlightAware Approximate
04:16PM -11.4707 -54.1258 151° Southeast  Level FlightAware Approximate
04:17PM -11.5796 -54.0639 151° Southeast  Level FlightAware Approximate
04:18PM -11.6885 -54.0018 151° Southeast  Level FlightAware Approximate
04:19PM -11.7974 -53.9398 151° Southeast  Level FlightAware Approximate
04:20PM -11.9063 -53.8777 151° Southeast  Level FlightAware Approximate
04:21PM -12.0152 -53.8155 151° Southeast  Level FlightAware Approximate
04:22PM -12.1240 -53.7533 151° Southeast  Level FlightAware Approximate
04:23PM -12.2329 -53.6910 151° Southeast  Level FlightAware Approximate
04:24PM -12.3417 -53.6287 151° Southeast  Level FlightAware Approximate
04:25PM -12.4505 -53.5664 151° Southeast  Level FlightAware Approximate
04:26PM -12.5593 -53.5039 151° Southeast  Level FlightAware Approximate
04:27PM -12.6681 -53.4415 151° Southeast  Level FlightAware Approximate
04:28PM -12.7769 -53.3790 151° Southeast  Level FlightAware Approximate
04:29PM -12.8856 -53.3164 151° Southeast  Level FlightAware Approximate
04:30PM -12.9944 -53.2538 151° Southeast  Level FlightAware Approximate
04:31PM -13.1031 -53.1911 151° Southeast  Level FlightAware Approximate
04:32PM -13.2118 -53.1283 151° Southeast  Level FlightAware Approximate
04:33PM -13.3205 -53.0656 151° Southeast  Level FlightAware Approximate
04:34PM -13.4292 -53.0027 151° Southeast  Level FlightAware Approximate
04:35PM -13.5378 -52.9398 151° Southeast  Level FlightAware Approximate
04:36PM -13.6465 -52.8768 151° Southeast  Level FlightAware Approximate
04:37PM -13.7551 -52.8138 151° Southeast  Level FlightAware Approximate
04:38PM -13.8637 -52.7507 151° Southeast  Level FlightAware Approximate
04:39PM -13.9723 -52.6876 151° Southeast  Level FlightAware Approximate
04:40PM -14.0809 -52.6244 151° Southeast  Level FlightAware Approximate
04:41PM -14.1895 -52.5611 151° Southeast  Level FlightAware Approximate
04:42PM -14.2980 -52.4978 151° Southeast  Level FlightAware Approximate
04:43PM -14.4065 -52.4344 150° Southeast  Level FlightAware Approximate
04:44PM -14.5151 -52.3710 150° Southeast  Level FlightAware Approximate
04:45PM -14.6236 -52.3075 150° Southeast  Level FlightAware Approximate
04:46PM -14.7320 -52.2439 150° Southeast  Level FlightAware Approximate
04:47PM -14.8405 -52.1803 150° Southeast  Level FlightAware Approximate
04:48PM -14.9489 -52.1166 150° Southeast  Level FlightAware Approximate
04:49PM -15.0574 -52.0528 150° Southeast  Level FlightAware Approximate
04:50PM -15.1658 -51.9890 150° Southeast  Level FlightAware Approximate
04:51PM -15.2742 -51.9251 150° Southeast  Level FlightAware Approximate
04:52PM -15.3826 -51.8611 150° Southeast  Level FlightAware Approximate
04:53PM -15.4909 -51.7971 150° Southeast  Level FlightAware Approximate
04:54PM -15.5992 -51.7330 150° Southeast  Level FlightAware Approximate
04:55PM -15.7076 -51.6689 150° Southeast  Level FlightAware Approximate
04:56PM -15.8159 -51.6046 150° Southeast  Level FlightAware Approximate
04:57PM -15.9242 -51.5403 150° Southeast  Level FlightAware Approximate
04:58PM -16.0324 -51.4760 150° Southeast  Level FlightAware Approximate
04:59PM -16.1406 -51.4115 150° Southeast  Level FlightAware Approximate
05:00PM -16.2489 -51.3470 150° Southeast  Level FlightAware Approximate
05:01PM -16.3571 -51.2824 150° Southeast  Level FlightAware Approximate
05:02PM -16.4653 -51.2178 150° Southeast  Level FlightAware Approximate
05:03PM -16.5734 -51.1531 150° Southeast  Level FlightAware Approximate
05:04PM -16.6816 -51.0883 150° Southeast  Level FlightAware Approximate
05:05PM -16.7897 -51.0234 150° Southeast  Level FlightAware Approximate
05:06PM -16.8978 -50.9585 150° Southeast  Level FlightAware Approximate
05:07PM -17.0059 -50.8935 150° Southeast  Level FlightAware Approximate
05:08PM -17.1139 -50.8284 150° Southeast  Level FlightAware Approximate
05:09PM -17.2220 -50.7632 150° Southeast  Level FlightAware Approximate
05:10PM -17.3300 -50.6980 150° Southeast  Level FlightAware Approximate
05:11PM -17.4380 -50.6326 150° Southeast  Level FlightAware Approximate
05:12PM -17.5460 -50.5672 150° Southeast  Level FlightAware Approximate
05:13PM -17.6539 -50.5018 150° Southeast  Level FlightAware Approximate
05:14PM -17.7619 -50.4362 150° Southeast  Level FlightAware Approximate
05:15PM -17.8698 -50.3706 150° Southeast  Level FlightAware Approximate
05:16PM -17.9777 -50.3049 150° Southeast  Level FlightAware Approximate
05:17PM -18.0855 -50.2391 150° Southeast  Level FlightAware Approximate
05:18PM -18.1934 -50.1732 150° Southeast  Level FlightAware Approximate
05:19PM -18.3012 -50.1073 150° Southeast  Level FlightAware Approximate
05:20PM -18.4090 -50.0412 150° Southeast  Level FlightAware Approximate
05:21PM -18.5168 -49.9751 150° Southeast  Level FlightAware Approximate
05:22PM -18.6245 -49.9089 150° Southeast  Level FlightAware Approximate
05:23PM -18.7323 -49.8426 150° Southeast  Level FlightAware Approximate
05:24PM -18.8400 -49.7762 150° Southeast  Level FlightAware Approximate
05:25PM -18.9477 -49.7098 150° Southeast  Level FlightAware Approximate
05:26PM -19.0553 -49.6432 150° Southeast  Level FlightAware Approximate
05:27PM -19.1630 -49.5766 150° Southeast  Level FlightAware Approximate
05:28PM -19.2706 -49.5099 150° Southeast  Level FlightAware Approximate
05:29PM -19.3782 -49.4431 150° Southeast  Level FlightAware Approximate
05:30PM -19.4858 -49.3762 150° Southeast  Level FlightAware Approximate
05:31PM -19.5933 -49.3092 150° Southeast  Level FlightAware Approximate
05:32PM -19.7008 -49.2422 150° Southeast  Level FlightAware Approximate
05:33PM -19.8083 -49.1750 150° Southeast  Level FlightAware Approximate
05:34PM -19.9158 -49.1077 150° Southeast  Level FlightAware Approximate
05:35PM -20.0232 -49.0404 149° Southeast  Level FlightAware Approximate
05:36PM -20.1306 -48.9730 149° Southeast  Level FlightAware Approximate
05:37PM -20.2380 -48.9054 149° Southeast  Level FlightAware Approximate
05:38PM -20.3454 -48.8378 149° Southeast  Level FlightAware Approximate
05:39PM -20.4527 -48.7701 149° Southeast  Level FlightAware Approximate
05:40PM -20.5600 -48.7023 149° Southeast  Level FlightAware Approximate
05:41PM -20.6673 -48.6344 149° Southeast  Level FlightAware Approximate
05:42PM -20.7746 -48.5664 149° Southeast  Level FlightAware Approximate
05:43PM -20.8818 -48.4983 149° Southeast  Level FlightAware Approximate
05:44PM -20.9890 -48.4301 149° Southeast  Level FlightAware Approximate
05:45PM -21.0962 -48.3618 149° Southeast  Level FlightAware Approximate
05:46PM -21.2033 -48.2934 149° Southeast  Level FlightAware Approximate
05:47PM -21.3105 -48.2249 149° Southeast  Level FlightAware Approximate
05:48PM -21.4175 -48.1563 149° Southeast  Level FlightAware Approximate
05:49PM -21.5246 -48.0876 149° Southeast  Level FlightAware Approximate
05:50PM -21.6317 -48.0188 195° South  Level FlightAware Approximate
05:51PM -21.7416 -48.0511 146° Southeast  Level FlightAware Approximate
05:52PM -21.8447 -47.9757 146° Southeast  Level FlightAware Approximate
05:53PM -21.9478 -47.9001 145° Southeast  Level FlightAware Approximate
05:54PM -22.0503 -47.8236 146° Southeast  Level FlightAware Approximate
05:55PM -22.1537 -47.7485 146° Southeast  Level FlightAware Approximate
05:56PM -22.2568 -47.6726 146° Southeast  Level FlightAware Approximate
05:57PM -22.3599 -47.5968 146° Southeast  Level FlightAware Approximate
05:58PM -22.4628 -47.5207 146° Southeast  Level FlightAware Approximate
05:59PM -22.5658 -47.4446 147° Southeast  Level FlightAware Approximate
06:00PM -22.6698 -47.3702 145° Southeast  Level FlightAware Approximate
06:01PM -22.7718 -47.2926 145° Southeast  Level FlightAware Approximate
06:02PM -22.8733 -47.2159 149° Southeast  Level FlightAware Approximate
06:03PM -22.9797 -47.1455 161° South  Level FlightAware Approximate
06:04PM -23.0973 -47.1006 343° North  Level Estimated
06:05PM -23.0000 -47.1333 189° South  Level FlightAware Approximate
06:06PM -23.1233 -47.1535 North  Level Estimated
06:07PM -23.0000 -47.1333 189° South  Level FlightAware Approximate
06:08PM -23.1233 -47.1535 North  Level Estimated
06:09PM -23.0000 -47.1333 189° South  Level FlightAware Approximate
06:10PM -23.1233 -47.1535 North  Level Estimated
06:11PM -23.0000 -47.1333 189° South  Level FlightAware Approximate
06:12PM -23.1233 -47.1535 North  Level Estimated
06:13PM -23.0000 -47.1333 189° South  Level FlightAware Approximate
06:14PM -23.1233 -47.1535 North  Level Estimated
06:15PM -23.0000 -47.1333 189° South  Level FlightAware Approximate
06:16PM -23.1233 -47.1535 North  Level Estimated
06:17PM -23.0000 -47.1333 189° South  Level FlightAware Approximate
06:18PM -23.1233 -47.1535 North  Level Estimated
06:19PM -23.0000 -47.1333 189° South  Level FlightAware Approximate
06:20PM -23.1233 -47.1535 189° South  Level Estimated